createdAt,value
2018-06-25T00:04:08.448Z,6.60
2018-06-25T00:09:12.116Z,6.67
2018-06-25T00:14:15.786Z,6.60
2018-06-25T00:19:19.585Z,7.43
2018-06-25T00:24:23.240Z,5.50
2018-06-25T00:29:26.948Z,7.47
2018-06-25T00:34:30.666Z,7.30
2018-06-25T00:39:34.348Z,6.10
2018-06-25T00:44:38.022Z,5.43
2018-06-25T00:49:41.710Z,5.30
2018-06-25T00:54:45.876Z,9.03
2018-06-25T00:59:53.131Z,5.60
2018-06-25T01:04:56.848Z,4.77
2018-06-25T01:10:00.674Z,5.50
2018-06-25T01:15:04.776Z,5.87
2018-06-25T01:20:08.433Z,6.40
2018-06-25T01:25:12.081Z,8.17
2018-06-25T01:30:15.757Z,6.97
2018-06-25T01:35:19.963Z,6.17
2018-06-25T01:40:23.958Z,7.73
2018-06-25T01:45:27.719Z,5.30
2018-06-25T01:50:31.376Z,5.87
2018-06-25T01:55:35.060Z,8.77
2018-06-25T02:00:38.782Z,5.30
2018-06-25T02:05:42.471Z,8.73
2018-06-25T02:10:46.988Z,8.40
2018-06-25T02:15:50.843Z,6.10
2018-06-25T02:20:54.876Z,10.30
2018-06-25T02:25:58.594Z,6.03
2018-06-25T02:31:10.362Z,9.30
2018-06-25T02:36:14.013Z,11.60
2018-06-25T02:41:17.693Z,8.40
2018-06-25T02:46:21.341Z,6.30
2018-06-25T02:51:25.004Z,8.97
2018-06-25T02:56:28.707Z,8.93
2018-06-25T03:01:32.380Z,7.67
2018-06-25T03:06:36.283Z,6.50
2018-06-25T03:11:40.326Z,7.70
2018-06-25T03:16:44.095Z,7.87
2018-06-25T03:21:47.820Z,6.90
2018-06-25T03:26:51.901Z,9.57
2018-06-25T03:31:56.381Z,9.97
2018-06-25T03:37:00.079Z,8.90
2018-06-25T03:42:03.916Z,8.83
2018-06-25T03:47:07.681Z,7.83
2018-06-25T03:52:11.386Z,9.57
2018-06-25T03:57:15.230Z,8.37
2018-06-25T04:02:21.766Z,10.97
2018-06-25T04:07:25.613Z,10.40
2018-06-25T04:12:29.777Z,16.97
2018-06-25T04:17:33.428Z,12.50
2018-06-25T04:22:37.148Z,13.13
2018-06-25T04:27:40.965Z,12.00
2018-06-25T04:32:44.624Z,11.80
2018-06-25T04:37:48.579Z,12.90
2018-06-25T04:42:53.163Z,12.83
2018-06-25T04:47:57.223Z,16.23
2018-06-25T04:53:01.882Z,11.80
2018-06-25T04:58:06.882Z,19.00
2018-06-25T05:03:10.884Z,21.50
2018-06-25T05:08:15.260Z,17.23
2018-06-25T05:13:19.535Z,19.77
2018-06-25T05:18:24.512Z,13.40
2018-06-25T05:23:28.500Z,14.47
2018-06-25T05:28:32.199Z,13.30
2018-06-25T05:33:35.910Z,14.40
2018-06-25T05:39:00.673Z,17.13
2018-06-25T05:44:04.794Z,12.13
2018-06-25T05:49:09.052Z,12.07
2018-06-25T05:54:12.693Z,18.10
2018-06-25T05:59:16.368Z,16.83
2018-06-25T06:04:20.112Z,16.70
2018-06-25T06:09:24.100Z,17.83
2018-06-25T06:14:28.693Z,17.13
2018-06-25T06:19:32.349Z,15.37
2018-06-25T06:24:36.194Z,15.40
2018-06-25T06:29:39.875Z,18.30
2018-06-25T06:34:43.554Z,15.00
2018-06-25T06:39:47.255Z,17.10
2018-06-25T06:44:50.922Z,14.20
2018-06-25T06:49:54.589Z,16.23
2018-06-25T06:54:58.229Z,10.57
2018-06-25T07:00:01.874Z,9.30
2018-06-25T07:05:05.654Z,13.50
2018-06-25T07:10:10.296Z,13.20
2018-06-25T07:15:14.305Z,8.63
2018-06-25T07:20:18.069Z,11.83
2018-06-25T07:25:22.340Z,9.20
2018-06-25T07:30:26.725Z,11.73
2018-06-25T07:35:30.472Z,13.33
2018-06-25T07:40:34.190Z,10.77
2018-06-25T07:45:37.855Z,12.50
2018-06-25T07:50:41.691Z,8.60
2018-06-25T07:55:45.920Z,10.13
2018-06-25T08:00:49.640Z,10.63
2018-06-25T08:05:53.442Z,14.10
2018-06-25T08:12:00.257Z,13.93
2018-06-25T08:17:04.123Z,11.90
2018-06-25T08:22:08.460Z,11.73
2018-06-25T08:27:12.105Z,8.53
2018-06-25T08:32:18.518Z,13.30
2018-06-25T08:37:22.155Z,11.00
2018-06-25T08:42:25.869Z,17.20
2018-06-25T08:47:29.527Z,10.30
2018-06-25T08:52:33.329Z,9.47
2018-06-25T08:57:37.243Z,10.77
2018-06-25T09:02:41.342Z,13.80
2018-06-25T09:07:45.118Z,9.90
2018-06-25T09:12:49.142Z,15.27
2018-06-25T09:17:53.053Z,9.83
2018-06-25T09:22:57.696Z,11.23
2018-06-25T09:28:04.912Z,7.93
2018-06-25T09:33:08.632Z,12.60
2018-06-25T09:38:12.437Z,6.93
2018-06-25T09:43:16.140Z,7.33
2018-06-25T09:48:20.040Z,7.33
2018-06-25T09:53:23.729Z,5.77
2018-06-25T09:58:27.704Z,5.63
2018-06-25T10:03:31.461Z,6.47
2018-06-25T10:08:35.736Z,4.40
2018-06-25T10:13:39.396Z,5.33
2018-06-25T10:18:44.335Z,5.57
2018-06-25T10:23:48.076Z,7.60
2018-06-25T10:28:52.004Z,4.40
2018-06-25T10:33:55.782Z,2.57
2018-06-25T10:38:59.457Z,4.13
2018-06-25T10:44:03.507Z,2.00
2018-06-25T10:49:07.197Z,2.50
2018-06-25T10:54:11.308Z,4.10
2018-06-25T10:59:15.238Z,2.77
2018-06-25T11:04:18.943Z,3.50
2018-06-25T11:09:23.515Z,4.10
2018-06-25T11:14:27.284Z,4.40
2018-06-25T11:19:32.597Z,2.20
2018-06-25T11:24:36.905Z,7.70
2018-06-25T11:29:41.535Z,3.00
2018-06-25T11:34:45.237Z,2.30
2018-06-25T11:39:48.977Z,2.70
2018-06-25T11:44:52.740Z,4.83
2018-06-25T11:49:56.532Z,3.50
2018-06-25T11:55:01.515Z,7.23
2018-06-25T12:00:06.538Z,2.17
2018-06-25T12:05:10.205Z,2.00
2018-06-25T12:10:14.112Z,4.60
2018-06-25T12:15:17.767Z,3.30
2018-06-25T12:20:21.446Z,1.97
2018-06-25T12:25:25.144Z,2.40
2018-06-25T12:30:29.224Z,3.10
2018-06-25T12:35:32.960Z,1.70
2018-06-25T12:40:37.468Z,2.20
2018-06-25T12:45:41.447Z,3.30
2018-06-25T12:50:45.577Z,4.63
2018-06-25T12:55:49.490Z,2.07
2018-06-25T13:00:53.175Z,3.03
2018-06-25T13:05:57.778Z,3.10
2018-06-25T13:11:01.442Z,1.87
2018-06-25T13:16:05.374Z,2.77
2018-06-25T13:21:09.319Z,2.00
2018-06-25T13:26:12.643Z,3.43
2018-06-25T13:31:16.494Z,2.13
2018-06-25T13:36:20.344Z,1.63
2018-06-25T13:41:25.986Z,6.10
2018-06-25T13:46:29.991Z,2.73
2018-06-25T13:51:34.309Z,1.33
2018-06-25T13:56:38.594Z,2.83
2018-06-25T14:01:42.679Z,2.70
2018-06-25T14:06:47.226Z,3.30
2018-06-25T14:11:50.997Z,6.00
2018-06-25T14:16:56.935Z,3.53
2018-06-25T14:22:00.495Z,7.53
2018-06-25T14:27:13.202Z,4.13
2018-06-25T14:32:22.641Z,1.87
2018-06-25T14:37:26.281Z,2.50
2018-06-25T14:42:44.215Z,2.17
2018-06-25T14:47:48.139Z,5.90
2018-06-25T14:52:52.121Z,1.47
2018-06-25T14:57:55.855Z,2.43
2018-06-25T15:02:59.538Z,4.80
2018-06-25T15:08:03.227Z,6.90
2018-06-25T15:13:07.714Z,2.10
2018-06-25T15:18:11.876Z,1.57
2018-06-25T15:23:16.179Z,1.47
2018-06-25T15:28:20.370Z,1.20
2018-06-25T15:33:24.020Z,2.37
2018-06-25T15:38:27.704Z,1.00
2018-06-25T15:43:31.629Z,1.23
2018-06-25T15:48:35.318Z,1.73
2018-06-25T15:53:39.075Z,1.87
2018-06-25T15:58:43.093Z,1.37
2018-06-25T16:03:46.872Z,7.77
2018-06-25T16:08:52.552Z,4.00
2018-06-25T16:13:56.320Z,1.33
2018-06-25T16:18:59.989Z,9.80
2018-06-25T16:24:03.799Z,2.20
2018-06-25T16:29:07.542Z,1.67
2018-06-25T16:34:11.317Z,3.13
2018-06-25T16:39:15.027Z,2.50
2018-06-25T16:44:18.844Z,3.20
2018-06-25T16:49:22.533Z,2.00
2018-06-25T16:54:26.544Z,2.50
2018-06-25T16:59:30.235Z,4.50
2018-06-25T17:04:34.608Z,2.03
2018-06-25T17:09:38.301Z,7.07
2018-06-25T17:14:41.973Z,2.20
2018-06-25T17:19:45.862Z,1.60
2018-06-25T17:24:49.515Z,1.60
2018-06-25T17:29:53.299Z,1.00
2018-06-25T17:34:57.602Z,2.70
2018-06-25T17:40:03.227Z,1.43
2018-06-25T17:45:07.265Z,2.07
2018-06-25T17:50:11.003Z,1.60
2018-06-25T17:55:14.903Z,2.00
2018-06-25T18:00:18.628Z,1.67
2018-06-25T18:05:22.354Z,1.90
2018-06-25T18:10:26.043Z,1.63
2018-06-25T18:15:29.720Z,3.13
2018-06-25T18:20:33.401Z,2.00
2018-06-25T18:25:37.082Z,2.20
2018-06-25T18:30:40.808Z,2.70
2018-06-25T18:35:44.520Z,1.40
2018-06-25T18:40:48.355Z,3.20
2018-06-25T18:45:52.277Z,3.73
2018-06-25T18:50:56.033Z,2.80
2018-06-25T18:55:59.744Z,1.90
2018-06-25T19:01:03.431Z,2.30
2018-06-25T19:06:07.145Z,2.90
2018-06-25T19:11:12.111Z,3.80
2018-06-25T19:16:15.784Z,1.43
2018-06-25T19:21:19.524Z,1.23
2018-06-25T19:26:23.856Z,1.90
2018-06-25T19:31:27.558Z,2.80
2018-06-25T19:36:31.443Z,4.27
2018-06-25T19:41:35.314Z,1.50
2018-06-25T19:46:39.019Z,1.50
2018-06-25T19:51:42.703Z,1.97
2018-06-25T19:56:46.736Z,1.93
2018-06-25T20:01:51.175Z,2.20
2018-06-25T20:06:54.916Z,1.50
2018-06-25T20:11:58.693Z,1.30
2018-06-25T20:17:02.691Z,2.57
2018-06-25T20:22:06.420Z,2.10
2018-06-25T20:27:10.322Z,2.27
2018-06-25T20:32:14.370Z,3.90
2018-06-25T20:37:18.051Z,2.80
2018-06-25T20:42:21.831Z,1.70
2018-06-25T20:47:26.672Z,1.90
2018-06-25T20:52:30.351Z,6.33
2018-06-25T20:57:34.707Z,1.53
2018-06-25T21:02:38.388Z,2.40
2018-06-25T21:07:45.672Z,2.40
2018-06-25T21:12:49.885Z,1.20
2018-06-25T21:17:54.558Z,2.30
2018-06-25T21:22:58.857Z,3.57
2018-06-25T21:28:03.128Z,2.90
2018-06-25T21:33:06.814Z,2.27
2018-06-25T21:38:10.704Z,2.40
2018-06-25T21:43:14.857Z,1.87
2018-06-25T21:48:18.975Z,2.37
2018-06-25T21:53:22.620Z,3.87
2018-06-25T21:58:27.643Z,1.40
2018-06-25T22:03:34.646Z,2.83
2018-06-25T22:08:41.058Z,2.13
2018-06-25T22:13:48.233Z,4.27
2018-06-25T22:18:52.190Z,2.10
2018-06-25T22:23:55.840Z,3.10
2018-06-25T22:28:59.863Z,2.60
2018-06-25T22:34:03.838Z,1.70
2018-06-25T22:39:10.971Z,1.63
2018-06-25T22:44:15.120Z,1.77
2018-06-25T22:49:18.830Z,2.00
2018-06-25T22:54:22.954Z,2.70
2018-06-25T22:59:26.624Z,1.87
2018-06-25T23:04:30.876Z,5.60
2018-06-25T23:09:34.531Z,1.53
2018-06-25T23:14:38.986Z,1.60
2018-06-25T23:19:42.628Z,1.80
2018-06-25T23:24:46.301Z,3.23
2018-06-25T23:29:50.329Z,2.33
2018-06-25T23:34:54.002Z,2.27
2018-06-25T23:39:58.485Z,1.77
2018-06-25T23:45:02.148Z,2.47
2018-06-25T23:50:06.322Z,1.97
2018-06-25T23:55:10.382Z,1.57
